• Join FlightAware (Why Join?)
  • Login
  • US Flag 
03:05AM EDT


 

Airport Tracker/Info


-or-


 

Live Flight TrackerFlight Track Log ✈ UCA3598 ✈ 24-Nov-2013 ✈ KIAD - KBGM

Flight Track Log - Related Links

Times and Time Zones

All times are in EST time to prevent confusion due to time zone crossing. See the UCA3598 flight status page for this flight to view local times or setup timezone preferences in your user account.

Time Position Orientation Groundspeed Altitude Reporting Facility
EST Latitude Longitude Course Direction KTS MPH feet Rate Location/Type
10:27PM 38.9500 -77.5000 339° North 114 131 1,600  Level Potomac TRACON
10:28PM 38.9833 -77.5167 339° North 152 175 3,000 1,500 Climbing Potomac TRACON
10:29PM 39.0167 -77.5333 339° North 155 178 4,600 1,560 Climbing Potomac TRACON
10:30PM 39.0667 -77.5500 345° North 160 184 6,200 1,680 Climbing Potomac TRACON
10:31PM 39.1167 -77.5500 360° North 155 178 8,000 1,620 Climbing Potomac TRACON
10:32PM 39.1500 -77.5667 339° North 152 175 9,500 1,260 Climbing Potomac TRACON
10:34PM 39.2197 -77.6064 336° Northwest 157 181 11,800 1,140 Climbing Washington Center
10:35PM 39.2611 -77.6233 342° North 157 181 12,900 600 Climbing Washington Center
10:36PM 39.3089 -77.6356 349° North 157 181 13,100  Climbing Washington Center
10:37PM 39.3678 -77.5969 27° Northeast 186 214 12,900 -120 Descending Washington Center
10:38PM 39.4286 -77.5664 21° North 211 243 12,900 960 Level Washington Center
10:39PM 39.4856 -77.5356 23° Northeast 218 251 14,800 1,080 Climbing Washington Center
10:40PM 39.5381 -77.5100 21° North 212 244 15,100 480 Climbing Washington Center
10:41PM 39.5947 -77.4794 23° Northeast 212 244 15,800 780 Climbing Washington Center
10:42PM 39.6656 -77.4542 15° North 181 208 17,000 480 Climbing New York Center
10:43PM 39.7178 -77.4539 360° North 192 221 17,000  Level New York Center
10:44PM 39.7844 -77.4522 North 207 238 17,000  Level New York Center
10:45PM 39.8408 -77.4519 360° North 220 253 17,000  Level New York Center
10:46PM 39.9061 -77.4419 North 215 247 17,000  Level New York Center
10:47PM 39.9622 -77.4094 24° Northeast 233 268 17,000  Level New York Center
10:48PM 40.0289 -77.3725 23° Northeast 240 276 17,000  Level New York Center
10:49PM 40.0828 -77.3422 23° Northeast 235 270 17,000  Level New York Center
10:50PM 40.1494 -77.3050 23° Northeast 235 270 17,000  Level New York Center
10:51PM 40.2031 -77.2775 21° North 230 265 17,000  Level New York Center
10:52PM 40.2656 -77.2397 25° Northeast 230 265 17,000  Level New York Center
10:53PM 40.3194 -77.2094 23° Northeast 225 259 17,000  Level New York Center
10:54PM 40.3858 -77.1747 22° Northeast 225 259 17,000  Level New York Center
10:55PM 40.4375 -77.1442 24° Northeast 225 259 17,000  Level New York Center
10:56PM 40.5019 -77.1089 23° Northeast 220 253 17,000  Level New York Center
10:57PM 40.5600 -77.0761 23° Northeast 220 253 17,000  Level New York Center
10:58PM 40.6203 -77.0406 24° Northeast 220 253 17,000  Level New York Center
10:59PM 40.6675 -77.0147 23° Northeast 220 253 17,000 -480 Level New York Center
11:00PM 40.7386 -76.9719 25° Northeast 226 260 16,100 -780 Descending New York Center
11:01PM 40.8008 -76.9364 23° Northeast 226 260 15,500 -720 Descending New York Center
11:02PM 40.8608 -76.9036 22° Northeast 232 267 14,700 -720 Descending New York Center
11:03PM 40.9211 -76.8678 24° Northeast 232 267 14,100 -600 Descending New York Center
11:04PM 40.9747 -76.8367 24° Northeast 237 273 13,500 -480 Descending New York Center
11:05PM 41.0347 -76.8036 23° Northeast 237 273 13,200 -180 Descending New York Center
11:06PM 41.0928 -76.7675 25° Northeast 232 267 13,200  Level New York Center
11:07PM 41.1464 -76.7364 24° Northeast 221 254 13,200  Level New York Center
11:08PM 41.2022 -76.7056 23° Northeast 221 254 13,200  Level New York Center
11:09PM 41.2583 -76.6689 26° Northeast 221 254 13,200  Level New York Center
11:10PM 41.3183 -76.6356 23° Northeast 221 254 13,200  Level New York Center
11:11PM 41.3742 -76.6017 24° Northeast 221 254 13,200  Level New York Center
11:12PM 41.4300 -76.5678 24° Northeast 221 254 13,200  Level New York Center
11:13PM 41.4814 -76.5389 23° Northeast 221 254 13,200  Level New York Center
11:14PM 41.5456 -76.5031 23° Northeast 221 254 13,200 -180 Level New York Center
11:15PM 41.6014 -76.4689 25° Northeast 221 254 12,900 -600 Descending New York Center
11:16PM 41.6614 -76.4322 25° Northeast 221 254 12,100 -1,020 Descending New York Center
11:17PM 41.7192 -76.4011 22° Northeast 231 266 10,900 -1,380 Descending New York Center
11:18PM 41.7792 -76.3617 26° Northeast 236 272 9,400 -1,500 Descending New York Center
11:19PM 41.8433 -76.3253 23° Northeast 236 272 7,900 -1,380 Descending New York Center
11:20PM 41.8881 -76.2622 46° Northeast 226 260 6,700 -1,200 Descending New York Center
11:21PM 41.9086 -76.1747 72° East 226 260 5,600 -1,140 Descending New York Center
11:22PM 41.9228 -76.0922 77° East 243 280 4,500 -840 Descending New York Center
11:23PM 41.9394 -75.9989 76° East 248 285 4,000 -300 Descending New York Center
11:24PM 41.9561 -75.9025 77° East 248 285 4,000 -60 Level New York Center
11:25PM 41.9822 -75.8264 65° Northeast 235 270 3,900 -60 Descending New York Center
11:26PM 42.0342 -75.8331 355° North 163 188 3,900  Level New York Center
11:27PM 42.0761 -75.8697 327° Northwest 156 180 3,900 -60 Level New York Center
11:28PM 42.1122 -75.9033 325° Northwest 163 188 3,800 -360 Descending New York Center
11:29PM 42.1406 -75.9225 333° Northwest 141 162 3,200 -600 Descending New York Center
11:31PM 42.1982 -75.9710 309° West  Level Estimated